Time;durP1;ratioP1;P1;durP2;ratioP2;P2;SDS_P1;SDS_P2;PMS_P1;PMS_P2;Temp;Humidity;BMP_temperature;BMP_pressure;BME280_temperature;BME280_humidity;BME280_pressure;Samples;Min_cycle;Max_cycle;Signal;HPM_P1;HPM_P2
2023/09/19 00:01:20;;;;;;;4.63;2.00;;;18.50;99.90;;;;;;5203062;28;20554;-48
2023/09/19 00:03:51;;;;;;;3.80;2.17;;;18.40;99.90;;;;;;5211957;28;20179;-48
2023/09/19 00:06:26;;;;;;;3.60;2.23;;;18.60;99.90;;;;;;5213700;28;20429;-48
2023/09/19 00:08:58;;;;;;;2.13;2.03;;;18.60;99.90;;;;;;5224614;28;20441;-47
2023/09/19 00:11:30;;;;;;;3.43;1.93;;;18.50;99.90;;;;;;5222240;28;20445;-48
2023/09/19 00:14:01;;;;;;;1.67;1.60;;;18.50;99.90;;;;;;5208125;28;20441;-49
2023/09/19 00:16:33;;;;;;;1.53;1.53;;;18.40;99.90;;;;;;5216474;28;20453;-48
2023/09/19 00:19:08;;;;;;;3.30;2.10;;;18.40;99.90;;;;;;5228396;28;20183;-49
2023/09/19 00:21:40;;;;;;;2.60;2.27;;;18.20;99.90;;;;;;5217524;28;20507;-49
2023/09/19 00:24:11;;;;;;;11.87;4.13;;;18.20;99.90;;;;;;5208787;28;20934;-48
2023/09/19 00:26:43;;;;;;;1.90;1.67;;;18.30;99.90;;;;;;5222810;28;20445;-49
2023/09/19 00:29:16;;;;;;;5.40;2.23;;;18.30;99.90;;;;;;5217209;28;20473;-50
2023/09/19 00:31:47;;;;;;;5.40;1.80;;;18.20;99.90;;;;;;5209967;28;22086;-50
2023/09/19 00:34:17;;;;;;;3.63;2.37;;;18.00;99.90;;;;;;5211117;28;20419;-48
2023/09/19 00:36:48;;;;;;;2.70;1.80;;;18.20;99.90;;;;;;5223336;28;20703;-49
2023/09/19 00:39:20;;;;;;;5.50;2.03;;;18.10;99.90;;;;;;5225211;28;20203;-49
2023/09/19 00:41:51;;;;;;;3.70;2.10;;;18.10;99.90;;;;;;5220899;28;20180;-49
2023/09/19 00:44:23;;;;;;;2.93;1.57;;;18.10;99.90;;;;;;5213867;28;20469;-49
2023/09/19 00:46:53;;;;;;;4.47;1.97;;;18.10;99.90;;;;;;5213889;28;20206;-49
2023/09/19 00:49:25;;;;;;;6.37;2.17;;;18.10;99.90;;;;;;5223866;28;20912;-48
2023/09/19 00:51:56;;;;;;;3.53;2.13;;;18.00;99.90;;;;;;5220942;28;20293;-49
2023/09/19 00:54:29;;;;;;;10.90;2.47;;;18.00;99.90;;;;;;5221571;28;20828;-49
2023/09/19 00:57:00;;;;;;;2.20;1.77;;;18.10;99.90;;;;;;5212283;28;20207;-50
2023/09/19 00:59:31;;;;;;;3.63;1.60;;;18.20;99.90;;;;;;5222438;28;20469;-49
2023/09/19 01:02:03;;;;;;;6.90;2.33;;;18.10;99.90;;;;;;5226411;28;20429;-49
2023/09/19 01:04:34;;;;;;;2.43;2.23;;;17.90;99.90;;;;;;5217850;28;20980;-48
2023/09/19 01:07:05;;;;;;;2.07;1.90;;;18.10;99.90;;;;;;5212612;28;20536;-49
2023/09/19 01:09:36;;;;;;;8.03;2.27;;;18.20;99.90;;;;;;5218550;28;20191;-49
2023/09/19 01:12:08;;;;;;;2.00;1.77;;;18.00;99.90;;;;;;5218097;28;20358;-49
2023/09/19 01:14:47;;;;;;;2.43;2.20;;;18.00;99.90;;;;;;5223340;28;20195;-50
2023/09/19 01:17:26;;;;;;;3.80;2.10;;;18.10;99.90;;;;;;5223121;28;20433;-49
2023/09/19 01:20:21;;;;;;;2.97;1.80;;;18.00;99.90;;;;;;5197887;28;20461;-49
2023/09/19 01:23:09;;;;;;;3.07;2.00;;;18.00;99.90;;;;;;5219773;28;20433;-48
2023/09/19 01:25:56;;;;;;;1.47;1.40;;;18.10;99.90;;;;;;5218979;28;20528;-49
2023/09/19 01:28:47;;;;;;;2.20;1.40;;;17.90;99.90;;;;;;5225412;28;20457;-49
2023/09/19 01:31:19;;;;;;;4.30;1.60;;;17.80;99.90;;;;;;5215603;28;20438;-48
2023/09/19 01:34:18;;;;;;;2.53;2.00;;;17.80;99.90;;;;;;5228789;28;20965;-47
2023/09/19 01:36:48;;;;;;;2.47;2.27;;;17.90;99.90;;;;;;5225302;28;20474;-47
2023/09/19 01:39:19;;;;;;;2.30;2.10;;;17.80;99.90;;;;;;5221280;28;20889;-48
2023/09/19 01:42:16;;;;;;;3.13;1.43;;;17.90;99.90;;;;;;5223170;28;20183;-45
2023/09/19 01:44:47;;;;;;;2.30;1.87;;;17.90;99.90;;;;;;5221175;28;20183;-45
2023/09/19 01:47:58;;;;;;;2.10;1.90;;;17.90;99.90;;;;;;5225595;28;20431;-48
2023/09/19 01:50:54;;;;;;;4.90;1.70;;;17.90;99.90;;;;;;5211333;28;20960;-46
2023/09/19 01:53:44;;;;;;;2.00;1.80;;;18.00;99.90;;;;;;5226224;28;20436;-46
2023/09/19 01:56:30;;;;;;;4.03;2.10;;;18.00;99.90;;;;;;5220588;28;20469;-48
2023/09/19 01:59:07;;;;;;;3.20;2.00;;;18.00;99.90;;;;;;5223291;28;20428;-50
2023/09/19 02:01:39;;;;;;;1.90;1.63;;;18.00;99.90;;;;;;5214345;28;20433;-49
2023/09/19 02:04:10;;;;;;;2.00;1.83;;;18.10;99.90;;;;;;5211321;28;20437;-50
2023/09/19 02:06:42;;;;;;;11.27;1.60;;;18.00;99.90;;;;;;5216957;28;20600;-49
2023/09/19 02:09:14;;;;;;;2.83;1.60;;;17.90;99.90;;;;;;5222291;28;21004;-49
2023/09/19 02:11:46;;;;;;;3.07;2.17;;;17.90;99.90;;;;;;5226711;28;20456;-50
2023/09/19 02:14:17;;;;;;;2.00;1.90;;;17.70;99.90;;;;;;5215917;28;20525;-49
2023/09/19 02:16:49;;;;;;;1.97;1.87;;;17.60;99.90;;;;;;5222041;28;20564;-50
2023/09/19 02:19:20;;;;;;;4.93;1.93;;;17.60;99.90;;;;;;5216576;28;20199;-49
2023/09/19 02:21:52;;;;;;;2.63;2.40;;;17.50;99.90;;;;;;5221591;28;20524;-49
2023/09/19 02:24:26;;;;;;;3.80;2.67;;;17.50;99.90;;;;;;5221344;28;20430;-50
2023/09/19 02:26:59;;;;;;;2.13;2.00;;;17.40;99.90;;;;;;5219087;28;20517;-49
2023/09/19 02:29:30;;;;;;;3.17;1.63;;;17.40;99.90;;;;;;5216417;28;20522;-47
2023/09/19 02:32:01;;;;;;;2.70;1.43;;;17.30;99.90;;;;;;5204871;28;20426;-48
2023/09/19 02:34:32;;;;;;;1.70;1.70;;;17.30;99.90;;;;;;5223566;28;20448;-48
2023/09/19 02:37:05;;;;;;;4.33;1.63;;;17.30;99.90;;;;;;5223522;28;21111;-49
2023/09/19 02:39:35;;;;;;;2.93;1.60;;;17.20;99.90;;;;;;5220360;28;20206;-50
2023/09/19 02:42:06;;;;;;;2.73;1.73;;;17.20;99.90;;;;;;5221741;28;20464;-49
2023/09/19 02:44:38;;;;;;;1.80;1.70;;;17.20;99.90;;;;;;5218983;28;20171;-49
2023/09/19 02:47:09;;;;;;;2.20;2.00;;;17.10;99.90;;;;;;5211257;28;20208;-49
2023/09/19 02:49:40;;;;;;;1.70;1.60;;;17.10;99.90;;;;;;5216037;28;20442;-49
2023/09/19 02:52:11;;;;;;;3.43;1.40;;;17.20;99.90;;;;;;5203336;28;20832;-49
2023/09/19 02:54:45;;;;;;;2.67;2.47;;;17.20;99.90;;;;;;5226137;28;20444;-50
2023/09/19 02:57:17;;;;;;;7.77;2.43;;;17.10;99.90;;;;;;5224751;28;20265;-49
2023/09/19 02:59:48;;;;;;;2.00;1.87;;;17.10;99.90;;;;;;5222537;28;20501;-50
2023/09/19 03:02:19;;;;;;;2.43;2.17;;;17.10;99.90;;;;;;5220467;28;20482;-49
2023/09/19 03:04:51;;;;;;;5.23;2.63;;;17.10;99.90;;;;;;5213390;28;20232;-50
2023/09/19 03:07:22;;;;;;;1.90;1.90;;;17.10;99.90;;;;;;5227537;28;20463;-49
2023/09/19 03:09:53;;;;;;;2.27;2.10;;;17.10;99.90;;;;;;5221172;28;20430;-49
2023/09/19 03:12:23;;;;;;;1.90;1.80;;;17.10;99.90;;;;;;5213437;28;20535;-49
2023/09/19 03:14:55;;;;;;;2.10;1.77;;;17.10;99.90;;;;;;5215316;28;20658;-49
2023/09/19 03:17:27;;;;;;;4.20;1.83;;;17.10;99.90;;;;;;5222194;28;20193;-50
2023/09/19 03:19:57;;;;;;;2.30;1.10;;;17.10;99.90;;;;;;5215219;28;20470;-48
2023/09/19 03:22:28;;;;;;;2.20;1.53;;;17.10;99.90;;;;;;5219152;28;20437;-48
2023/09/19 03:25:00;;;;;;;5.50;2.13;;;17.10;99.90;;;;;;5226579;28;20301;-48
2023/09/19 03:27:31;;;;;;;2.20;1.67;;;17.20;99.90;;;;;;5221912;28;20175;-50
2023/09/19 03:30:07;;;;;;;3.63;1.70;;;17.20;99.90;;;;;;5222429;28;20429;-50
2023/09/19 03:32:45;;;;;;;1.50;1.50;;;17.20;99.90;;;;;;5226370;28;20457;-51
2023/09/19 03:35:16;;;;;;;1.97;1.60;;;17.20;99.90;;;;;;5223262;28;20453;-50
2023/09/19 03:37:47;;;;;;;1.13;1.13;;;17.20;99.90;;;;;;5214678;28;20434;-50
2023/09/19 03:40:20;;;;;;;1.50;1.50;;;17.20;99.90;;;;;;5208302;28;20603;-50
2023/09/19 03:42:50;;;;;;;2.10;1.40;;;17.20;99.90;;;;;;5225640;28;20241;-51
2023/09/19 03:45:21;;;;;;;2.60;1.30;;;17.20;99.90;;;;;;5218169;28;20468;-49
2023/09/19 03:47:52;;;;;;;1.43;1.33;;;17.20;99.90;;;;;;5211568;28;20270;-48
2023/09/19 03:50:23;;;;;;;1.90;1.30;;;17.20;99.90;;;;;;5224149;28;20673;-48
2023/09/19 03:52:57;;;;;;;1.50;1.20;;;17.20;99.90;;;;;;5209817;28;20187;-48
2023/09/19 03:55:30;;;;;;;1.20;1.10;;;17.20;99.90;;;;;;5221522;28;20242;-47
2023/09/19 03:58:01;;;;;;;1.23;1.00;;;17.20;99.90;;;;;;5224698;28;20498;-49
2023/09/19 04:00:32;;;;;;;1.20;1.10;;;17.20;99.90;;;;;;5220931;28;20999;-49
2023/09/19 04:03:06;;;;;;;1.37;1.33;;;17.20;99.90;;;;;;5224385;28;20433;-49
2023/09/19 04:05:36;;;;;;;2.00;0.93;;;17.20;99.90;;;;;;5221167;28;20974;-49
2023/09/19 04:08:07;;;;;;;1.70;0.93;;;17.10;99.90;;;;;;5222851;28;20505;-49
2023/09/19 04:10:38;;;;;;;1.10;1.10;;;17.20;99.90;;;;;;5223206;28;20273;-49
2023/09/19 04:13:08;;;;;;;1.90;1.27;;;17.10;99.90;;;;;;5214409;28;20191;-49
2023/09/19 04:15:40;;;;;;;1.00;1.00;;;17.10;99.90;;;;;;5217484;28;20248;-49
2023/09/19 04:18:11;;;;;;;1.90;1.43;;;17.10;99.90;;;;;;5222425;28;20179;-49
2023/09/19 04:20:50;;;;;;;1.30;1.30;;;17.10;99.90;;;;;;5221090;28;20833;-49
2023/09/19 04:23:21;;;;;;;1.40;1.00;;;17.10;99.90;;;;;;5223432;28;20512;-48
2023/09/19 04:25:52;;;;;;;2.20;0.93;;;17.10;99.90;;;;;;5226450;28;20425;-48
2023/09/19 04:28:24;;;;;;;1.67;1.57;;;17.10;99.90;;;;;;5226119;28;20431;-50
2023/09/19 04:30:55;;;;;;;3.23;1.30;;;17.10;99.90;;;;;;5219043;28;20195;-49
2023/09/19 04:33:27;;;;;;;1.83;1.20;;;17.00;99.90;;;;;;5224894;28;20446;-49
2023/09/19 04:35:57;;;;;;;1.27;1.17;;;17.00;99.90;;;;;;5226625;28;20902;-48
2023/09/19 04:38:29;;;;;;;1.33;1.23;;;17.00;99.90;;;;;;5229403;28;20533;-50
2023/09/19 04:40:59;;;;;;;4.93;1.27;;;16.90;99.90;;;;;;5222484;28;20624;-50
2023/09/19 04:43:30;;;;;;;1.60;1.50;;;16.90;99.90;;;;;;5226936;28;20444;-49
2023/09/19 04:46:01;;;;;;;7.33;1.27;;;16.90;99.90;;;;;;5221478;28;20589;-49
2023/09/19 04:48:34;;;;;;;1.30;1.30;;;16.90;99.90;;;;;;5214382;28;20210;-49
2023/09/19 04:51:05;;;;;;;1.30;1.30;;;16.90;99.90;;;;;;5224288;28;20270;-46
2023/09/19 04:53:35;;;;;;;2.30;1.50;;;16.90;99.90;;;;;;5215120;28;20532;-46
2023/09/19 04:56:07;;;;;;;2.23;1.47;;;16.90;99.90;;;;;;5212771;28;20271;-47
2023/09/19 04:58:38;;;;;;;1.33;1.23;;;16.80;99.90;;;;;;5221251;28;20657;-48
2023/09/19 05:01:11;;;;;;;5.00;1.30;;;16.80;99.90;;;;;;5222496;28;20616;-49
2023/09/19 05:03:42;;;;;;;1.67;1.57;;;16.90;99.90;;;;;;5217330;28;20192;-50
2023/09/19 05:06:13;;;;;;;2.93;1.70;;;16.90;99.90;;;;;;5221594;28;20457;-49
2023/09/19 05:08:43;;;;;;;4.20;1.67;;;16.90;99.90;;;;;;5228380;28;20464;-50
2023/09/19 05:11:14;;;;;;;2.90;1.80;;;16.90;99.90;;;;;;5223435;28;20190;-50
2023/09/19 05:13:45;;;;;;;2.93;1.50;;;16.90;99.90;;;;;;5221631;28;20273;-49
2023/09/19 05:16:16;;;;;;;3.13;1.57;;;16.90;99.90;;;;;;5222251;28;20206;-49
2023/09/19 05:18:47;;;;;;;2.97;1.37;;;16.90;99.90;;;;;;5226937;28;20215;-49
2023/09/19 05:21:18;;;;;;;2.10;1.80;;;16.90;99.90;;;;;;5223651;28;20506;-49
2023/09/19 05:23:52;;;;;;;3.33;2.30;;;17.00;99.90;;;;;;5217584;28;20183;-49
2023/09/19 05:26:23;;;;;;;3.00;2.57;;;17.00;99.90;;;;;;5221768;28;20952;-49
2023/09/19 05:28:53;;;;;;;15.67;8.93;;;17.00;99.90;;;;;;5218588;28;20530;-49
2023/09/19 05:31:25;;;;;;;3.80;2.07;;;17.00;99.90;;;;;;5227028;28;20221;-50
2023/09/19 05:33:56;;;;;;;1.43;1.37;;;17.10;99.90;;;;;;5228157;28;20187;-48
2023/09/19 05:36:29;;;;;;;6.80;1.50;;;17.10;99.90;;;;;;5222681;28;20961;-49
2023/09/19 05:39:00;;;;;;;5.40;1.43;;;17.20;99.90;;;;;;5212406;28;20206;-49
2023/09/19 05:41:31;;;;;;;2.30;1.30;;;17.20;99.90;;;;;;5212324;28;20465;-49
2023/09/19 05:44:02;;;;;;;3.10;1.47;;;17.30;99.90;;;;;;5224070;28;20257;-49
2023/09/19 05:46:33;;;;;;;1.57;1.57;;;17.30;99.90;;;;;;5211532;28;20203;-49
2023/09/19 05:49:04;;;;;;;4.67;1.70;;;17.40;99.90;;;;;;5224946;28;21027;-51
2023/09/19 05:51:35;;;;;;;2.53;1.97;;;17.50;99.90;;;;;;5224781;28;20218;-51
2023/09/19 05:54:06;;;;;;;4.50;1.57;;;17.60;99.90;;;;;;5217559;28;20190;-49
2023/09/19 05:56:36;;;;;;;2.23;1.60;;;17.60;99.90;;;;;;5214320;28;20548;-50
2023/09/19 05:59:07;;;;;;;1.30;1.30;;;17.70;99.90;;;;;;5218171;28;20562;-50
2023/09/19 06:01:38;;;;;;;1.70;1.60;;;18.00;99.90;;;;;;5215781;28;20199;-49
2023/09/19 06:04:09;;;;;;;4.80;1.50;;;18.40;99.90;;;;;;5206699;28;20579;-49
2023/09/19 06:06:39;;;;;;;3.07;1.73;;;19.00;99.90;;;;;;5225771;28;20293;-49
2023/09/19 06:09:10;;;;;;;1.67;1.57;;;19.70;99.90;;;;;;5222133;28;20180;-49
2023/09/19 06:11:44;;;;;;;2.27;1.40;;;20.30;99.90;;;;;;5213929;28;20265;-49
2023/09/19 06:14:17;;;;;;;5.17;1.57;;;20.40;99.90;;;;;;5214045;28;20266;-50
2023/09/19 06:16:49;;;;;;;10.00;1.40;;;20.30;99.90;;;;;;5217499;28;20457;-48
2023/09/19 06:19:22;;;;;;;2.37;1.57;;;20.50;99.90;;;;;;5220941;28;20501;-48
2023/09/19 06:21:54;;;;;;;2.50;1.67;;;20.50;99.90;;;;;;5228004;28;20441;-49
2023/09/19 06:24:25;;;;;;;1.90;1.73;;;20.30;99.90;;;;;;5214813;28;20437;-50
2023/09/19 06:26:56;;;;;;;2.27;1.37;;;20.00;99.90;;;;;;5227361;28;20464;-50
2023/09/19 06:29:27;;;;;;;4.43;1.77;;;19.70;99.90;;;;;;5225292;28;20785;-46
2023/09/19 06:31:57;;;;;;;1.57;1.47;;;19.70;99.90;;;;;;5229338;28;20210;-47
2023/09/19 06:34:28;;;;;;;3.53;1.53;;;20.60;99.90;;;;;;5218404;28;20233;-46
2023/09/19 06:37:38;;;;;;;2.10;1.70;;;21.80;99.90;;;;;;5223740;28;20217;-47
2023/09/19 06:40:16;;;;;;;1.47;1.37;;;23.40;99.90;;;;;;5226156;28;20720;-49
2023/09/19 06:42:52;;;;;;;4.83;1.30;;;24.90;97.10;;;;;;5224967;28;20942;-46
2023/09/19 06:45:26;;;;;;;1.60;1.50;;;25.90;91.60;;;;;;5206030;28;20456;-46
2023/09/19 06:47:57;;;;;;;3.17;1.00;;;27.30;83.80;;;;;;5226143;28;20525;-46
2023/09/19 06:50:30;;;;;;;4.20;1.50;;;28.40;73.50;;;;;;5216763;28;20465;-45
2023/09/19 06:53:01;;;;;;;1.60;1.50;;;28.30;67.90;;;;;;5222298;28;20226;-47
2023/09/19 06:55:32;;;;;;;5.33;1.60;;;28.40;65.60;;;;;;5228374;28;20465;-46
2023/09/19 06:58:05;;;;;;;1.67;1.10;;;28.90;62.90;;;;;;5224350;28;21012;-45
2023/09/19 07:00:37;;;;;;;1.37;1.27;;;29.40;59.00;;;;;;5226506;28;20635;-46
2023/09/19 07:03:11;;;;;;;2.00;1.77;;;29.20;58.20;;;;;;5228049;28;20422;-47
2023/09/19 07:05:42;;;;;;;1.97;1.67;;;30.20;57.00;;;;;;5225542;28;20449;-45
2023/09/19 07:08:13;;;;;;;4.80;3.97;;;31.60;52.90;;;;;;5212895;28;20450;-46
2023/09/19 07:10:54;;;;;;;1.67;1.57;;;32.90;49.50;;;;;;5228407;28;20448;-45
2023/09/19 07:13:25;;;;;;;7.23;1.80;;;33.10;47.00;;;;;;5224583;28;20233;-49
2023/09/19 07:15:59;;;;;;;5.73;1.70;;;33.20;44.90;;;;;;5221208;28;20876;-47
2023/09/19 07:18:30;;;;;;;1.27;1.27;;;31.00;46.80;;;;;;5222246;28;20282;-46
2023/09/19 07:21:04;;;;;;;3.13;2.13;;;29.40;50.50;;;;;;5224781;28;20859;-47
2023/09/19 07:23:35;;;;;;;2.40;1.60;;;28.80;50.50;;;;;;5225837;28;20457;-46
2023/09/19 07:26:06;;;;;;;2.70;2.23;;;27.60;52.80;;;;;;5224356;28;20984;-49
2023/09/19 07:28:37;;;;;;;1.60;1.50;;;27.00;55.00;;;;;;5216189;28;20179;-46
2023/09/19 07:31:09;;;;;;;1.30;1.30;;;26.30;56.20;;;;;;5216911;28;20175;-47
2023/09/19 07:33:41;;;;;;;4.37;1.90;;;25.90;57.40;;;;;;5221446;28;20628;-48
2023/09/19 07:36:15;;;;;;;1.80;1.50;;;25.80;58.00;;;;;;5212866;28;20458;-48
2023/09/19 07:38:48;;;;;;;4.80;2.07;;;24.70;59.20;;;;;;5212179;28;20496;-47
2023/09/19 07:41:18;;;;;;;4.97;2.20;;;23.90;61.70;;;;;;5213001;28;20473;-46
2023/09/19 07:43:49;;;;;;;14.00;1.80;;;23.30;63.10;;;;;;5225734;28;20434;-47
2023/09/19 07:46:22;;;;;;;2.10;1.90;;;23.10;63.70;;;;;;5220571;28;20199;-46
2023/09/19 07:48:52;;;;;;;2.93;1.57;;;22.90;64.90;;;;;;5219632;28;20748;-47
2023/09/19 07:51:23;;;;;;;1.93;1.80;;;22.70;66.00;;;;;;5226047;28;20438;-46
2023/09/19 07:53:54;;;;;;;8.20;1.97;;;22.60;66.40;;;;;;5226465;28;20178;-47
2023/09/19 07:56:27;;;;;;;3.60;1.67;;;22.60;66.60;;;;;;5213218;28;20223;-48
2023/09/19 07:59:02;;;;;;;3.23;1.63;;;22.80;66.80;;;;;;5225104;28;20441;-48
2023/09/19 08:01:35;;;;;;;2.60;2.40;;;23.40;65.00;;;;;;5221375;28;20461;-48
2023/09/19 08:04:07;;;;;;;2.13;2.03;;;23.60;64.30;;;;;;5221997;28;20437;-51
2023/09/19 08:06:39;;;;;;;3.37;1.80;;;24.00;63.00;;;;;;5226672;28;20457;-48
2023/09/19 08:09:11;;;;;;;1.60;1.23;;;24.00;62.60;;;;;;5226854;28;20413;-46
2023/09/19 08:11:42;;;;;;;13.63;2.40;;;23.80;62.40;;;;;;5229261;28;20418;-46
2023/09/19 08:14:14;;;;;;;3.63;1.73;;;23.50;62.70;;;;;;5227448;28;20519;-46
2023/09/19 08:16:45;;;;;;;2.00;1.70;;;23.00;62.10;;;;;;5226680;28;20457;-47
2023/09/19 08:19:16;;;;;;;3.30;2.90;;;22.70;63.50;;;;;;5222026;28;20526;-49
2023/09/19 08:21:47;;;;;;;2.90;1.83;;;22.60;62.90;;;;;;5217929;28;20191;-50
2023/09/19 08:24:18;;;;;;;1.97;1.80;;;22.10;64.20;;;;;;5220481;28;20183;-48
2023/09/19 08:26:51;;;;;;;1.80;1.70;;;21.90;65.80;;;;;;5225594;28;20985;-50
2023/09/19 08:29:27;;;;;;;2.40;2.20;;;21.70;66.10;;;;;;5226254;28;20429;-48
2023/09/19 08:31:58;;;;;;;5.23;2.13;;;21.70;66.10;;;;;;5223050;28;20433;-49
2023/09/19 08:34:33;;;;;;;2.10;1.90;;;21.60;67.00;;;;;;5221480;28;20455;-50
2023/09/19 08:37:04;;;;;;;4.20;2.00;;;21.60;66.70;;;;;;5218490;28;20686;-50
2023/09/19 08:39:36;;;;;;;5.00;2.30;;;21.40;66.50;;;;;;5197491;28;20450;-50
2023/09/19 08:42:07;;;;;;;4.77;2.03;;;21.30;68.10;;;;;;5225068;28;20182;-48
2023/09/19 08:44:43;;;;;;;5.93;2.33;;;21.10;69.40;;;;;;5215798;28;20529;-49
2023/09/19 08:47:18;;;;;;;4.10;2.17;;;21.10;70.00;;;;;;5216210;28;20777;-47
2023/09/19 08:49:53;;;;;;;5.13;2.20;;;21.00;70.50;;;;;;5201688;28;20759;-50
2023/09/19 08:52:30;;;;;;;8.80;2.03;;;20.90;69.50;;;;;;5220958;28;20909;-49
2023/09/19 08:55:04;;;;;;;4.53;2.37;;;20.80;70.80;;;;;;5214975;28;20457;-49
2023/09/19 08:57:39;;;;;;;4.43;1.60;;;21.00;70.80;;;;;;5213808;28;20957;-50
2023/09/19 09:00:11;;;;;;;1.80;1.70;;;20.80;70.30;;;;;;5220450;28;20449;-52
2023/09/19 09:02:43;;;;;;;5.33;2.10;;;20.80;70.20;;;;;;5217210;28;21073;-51
2023/09/19 09:05:16;;;;;;;3.50;1.70;;;21.00;69.70;;;;;;5211831;28;20450;-49
2023/09/19 09:07:47;;;;;;;2.30;2.10;;;21.00;69.30;;;;;;5223644;28;20516;-49
2023/09/19 09:10:22;;;;;;;13.53;1.90;;;20.90;68.90;;;;;;5219661;28;20430;-48
2023/09/19 09:12:55;;;;;;;2.40;2.20;;;20.90;69.20;;;;;;5219361;28;20440;-50
2023/09/19 09:15:26;;;;;;;4.13;2.67;;;21.10;69.50;;;;;;5216115;28;20437;-50
2023/09/19 09:17:58;;;;;;;3.50;2.10;;;21.30;69.30;;;;;;5218133;28;20429;-48
2023/09/19 09:20:28;;;;;;;3.13;2.60;;;21.40;68.30;;;;;;5214690;28;20511;-48
2023/09/19 09:23:00;;;;;;;2.50;1.47;;;21.50;68.40;;;;;;5213781;28;20513;-49
2023/09/19 09:25:54;;;;;;;4.80;2.20;;;21.70;68.30;;;;;;5227093;28;20209;-49
2023/09/19 09:28:28;;;;;;;5.10;2.17;;;22.00;68.40;;;;;;5220219;28;20930;-49
2023/09/19 09:30:59;;;;;;;6.53;2.40;;;22.20;67.70;;;;;;5216615;28;20984;-50
2023/09/19 09:33:29;;;;;;;9.13;3.80;;;22.40;66.20;;;;;;5220797;28;20508;-49
2023/09/19 09:36:06;;;;;;;4.93;2.13;;;22.60;65.40;;;;;;5224757;28;20484;-50
2023/09/19 09:38:46;;;;;;;2.20;2.10;;;22.80;64.50;;;;;;5223439;28;20182;-50
2023/09/19 09:41:27;;;;;;;13.67;2.20;;;23.10;63.70;;;;;;5209055;28;20535;-50
2023/09/19 09:44:17;;;;;;;2.67;2.30;;;23.10;62.20;;;;;;5227226;28;20526;-49
2023/09/19 09:47:27;;;;;;;5.60;2.80;;;23.10;61.90;;;;;;5222294;28;20460;-49
2023/09/19 09:49:54;;;;;;;3.70;2.30;;;23.10;61.90;;;;;;5225360;28;20434;-49
2023/09/19 09:52:25;;;;;;;3.67;1.80;;;22.90;61.90;;;;;;5220567;28;20865;-49
2023/09/19 09:55:07;;;;;;;3.80;2.00;;;22.90;62.20;;;;;;5223255;28;20527;-49
2023/09/19 09:57:44;;;;;;;3.20;2.37;;;22.80;62.20;;;;;;5220480;28;20561;-53
2023/09/19 10:00:20;;;;;;;2.53;2.33;;;22.70;61.50;;;;;;5227857;28;20487;-51
2023/09/19 10:02:50;;;;;;;3.57;1.67;;;22.60;61.10;;;;;;5228019;28;20432;-49
2023/09/19 10:08:12;;;;;;;7.20;2.00;;;22.70;60.50;;;;;;5221341;28;20173;-50
2023/09/19 10:13:17;;;;;;;12.83;4.40;;;21.90;58.40;;;;;;5209771;28;20965;-49
2023/09/19 10:15:54;;;;;;;8.53;3.67;;;21.70;59.50;;;;;;5220877;28;20662;-49
2023/09/19 10:18:27;;;;;;;3.27;2.30;;;21.70;60.00;;;;;;5222562;28;20422;-51
2023/09/19 10:21:01;;;;;;;22.33;6.60;;;21.90;59.10;;;;;;5224836;28;20466;-48
2023/09/19 10:23:34;;;;;;;6.30;3.73;;;21.90;58.20;;;;;;5217986;28;20433;-47
2023/09/19 10:26:06;;;;;;;10.83;2.20;;;21.90;58.80;;;;;;5211487;28;20473;-48
2023/09/19 10:28:38;;;;;;;2.77;2.40;;;22.00;58.30;;;;;;5222191;28;20774;-47
2023/09/19 10:31:14;;;;;;;19.43;8.33;;;21.90;57.80;;;;;;5222044;28;20434;-48
2023/09/19 10:33:45;;;;;;;7.67;4.47;;;21.90;57.50;;;;;;5216914;28;20625;-46
2023/09/19 10:36:18;;;;;;;4.20;3.30;;;21.70;56.40;;;;;;5229419;28;20437;-46
2023/09/19 10:38:54;;;;;;;13.47;5.53;;;21.50;57.00;;;;;;5228926;28;20433;-46
2023/09/19 10:41:27;;;;;;;7.97;4.57;;;21.50;57.80;;;;;;5218665;28;20802;-46
2023/09/19 10:43:59;;;;;;;7.23;2.50;;;21.60;57.40;;;;;;5217455;28;20809;-47
2023/09/19 10:46:32;;;;;;;5.63;2.43;;;21.50;56.20;;;;;;5212063;28;20509;-48
2023/09/19 10:49:04;;;;;;;5.00;1.87;;;21.40;56.20;;;;;;5222095;28;20434;-48
2023/09/19 10:51:41;;;;;;;7.00;3.03;;;21.50;56.60;;;;;;5220248;28;20487;-47
2023/09/19 10:54:15;;;;;;;9.93;2.73;;;21.40;56.90;;;;;;5217740;28;20535;-47
2023/09/19 10:56:51;;;;;;;2.73;2.40;;;21.30;58.00;;;;;;5217010;28;21055;-46
2023/09/19 10:59:24;;;;;;;4.30;2.53;;;21.10;58.30;;;;;;5215845;28;20430;-47
2023/09/19 11:02:01;;;;;;;6.17;2.33;;;21.10;56.80;;;;;;5217076;28;20434;-46
2023/09/19 11:04:35;;;;;;;9.70;3.00;;;20.90;56.40;;;;;;5221214;28;20961;-47
2023/09/19 11:07:11;;;;;;;9.23;3.03;;;21.00;56.40;;;;;;5228167;28;20547;-45
2023/09/19 11:09:54;;;;;;;7.53;2.77;;;21.10;56.40;;;;;;5226257;28;20429;-47
2023/09/19 11:12:52;;;;;;;2.73;2.53;;;21.10;55.60;;;;;;5218481;28;20424;-46
2023/09/19 11:15:52;;;;;;;4.67;2.70;;;21.20;56.10;;;;;;5225804;28;20476;-46
2023/09/19 11:18:41;;;;;;;6.47;2.50;;;21.30;55.80;;;;;;5219766;28;20436;-47
2023/09/19 11:21:31;;;;;;;9.63;2.97;;;21.40;55.70;;;;;;5220872;28;20516;-45
2023/09/19 11:24:11;;;;;;;4.30;3.33;;;21.30;55.20;;;;;;5220499;28;20427;-46
2023/09/19 11:26:47;;;;;;;7.90;4.57;;;21.30;56.00;;;;;;5226217;28;20532;-47
2023/09/19 11:29:28;;;;;;;36.87;4.13;;;21.30;55.70;;;;;;5223101;28;20429;-47
2023/09/19 11:32:00;;;;;;;8.23;3.63;;;21.40;55.80;;;;;;5214041;28;20937;-46
2023/09/19 11:34:37;;;;;;;10.07;3.03;;;21.50;54.70;;;;;;5216429;28;20442;-47
2023/09/19 11:37:13;;;;;;;8.90;4.90;;;21.60;54.50;;;;;;5217585;28;21009;-46
2023/09/19 11:40:09;;;;;;;10.47;5.40;;;21.80;54.30;;;;;;5223460;28;20456;-48
2023/09/19 11:42:53;;;;;;;9.00;4.30;;;21.90;54.40;;;;;;5218885;28;20726;-49
2023/09/19 11:45:57;;;;;;;6.57;3.10;;;21.70;54.70;;;;;;5223864;28;20873;-49
2023/09/19 11:48:29;;;;;;;5.70;3.27;;;21.60;54.50;;;;;;5212547;28;20828;-47
2023/09/19 11:51:07;;;;;;;18.33;8.57;;;21.50;54.30;;;;;;5222955;28;20937;-47
2023/09/19 11:53:39;;;;;;;6.97;4.17;;;21.40;53.50;;;;;;5217722;28;20429;-49
2023/09/19 11:56:11;;;;;;;8.47;2.03;;;21.50;53.80;;;;;;5218662;28;20524;-49
2023/09/19 11:58:42;;;;;;;4.03;1.83;;;21.60;53.50;;;;;;5211818;28;20521;-49
2023/09/19 12:01:19;;;;;;;10.17;3.60;;;21.70;53.50;;;;;;5226091;28;20461;-49
2023/09/19 12:03:54;;;;;;;6.53;3.00;;;21.80;53.40;;;;;;5225509;28;20938;-47
2023/09/19 12:06:29;;;;;;;3.83;2.33;;;21.90;53.50;;;;;;5227553;28;20466;-48
2023/09/19 12:09:02;;;;;;;10.00;3.77;;;22.00;53.00;;;;;;5226069;28;20491;-47
2023/09/19 12:11:33;;;;;;;30.70;4.90;;;21.90;53.10;;;;;;5217787;28;20521;-47
2023/09/19 12:14:04;;;;;;;3.50;1.67;;;22.00;53.60;;;;;;5223818;28;20532;-48
2023/09/19 12:16:36;;;;;;;4.23;2.03;;;22.10;53.40;;;;;;5227862;28;20551;-47
2023/09/19 12:19:21;;;;;;;6.03;1.90;;;22.10;53.20;;;;;;5222527;28;20190;-47
2023/09/19 12:21:57;;;;;;;24.10;5.13;;;22.00;52.90;;;;;;5224069;28;20465;-47
2023/09/19 12:24:29;;;;;;;2.03;1.80;;;22.00;52.10;;;;;;5226831;28;20409;-47
2023/09/19 12:27:04;;;;;;;13.27;5.10;;;22.00;52.00;;;;;;5221078;28;20454;-48
2023/09/19 12:29:49;;;;;;;14.40;6.47;;;22.10;52.40;;;;;;5220899;28;20428;-48
2023/09/19 12:32:40;;;;;;;6.83;2.57;;;22.40;52.60;;;;;;5225393;28;20439;-49
2023/09/19 12:35:30;;;;;;;2.77;1.97;;;22.50;51.50;;;;;;5206185;28;20454;-49
2023/09/19 12:38:03;;;;;;;4.00;3.07;;;22.60;50.90;;;;;;5211811;28;20434;-47
2023/09/19 12:40:37;;;;;;;17.40;2.60;;;22.70;50.90;;;;;;5216042;28;20487;-46
2023/09/19 12:43:09;;;;;;;2.93;1.53;;;22.60;50.20;;;;;;5213633;28;20445;-47
2023/09/19 12:45:42;;;;;;;1.93;1.70;;;22.80;50.30;;;;;;5219250;28;20453;-48
2023/09/19 12:48:21;;;;;;;2.70;1.73;;;22.90;50.10;;;;;;5227302;28;20418;-47
2023/09/19 12:51:12;;;;;;;1.90;1.70;;;22.80;49.00;;;;;;5222317;28;20803;-47
2023/09/19 12:53:46;;;;;;;1.73;1.30;;;22.80;49.30;;;;;;5218077;28;20515;-48
2023/09/19 12:56:18;;;;;;;5.20;1.70;;;22.80;49.50;;;;;;5229877;28;20795;-48
2023/09/19 12:58:56;;;;;;;3.73;1.87;;;22.90;49.50;;;;;;5219428;28;20579;-49
2023/09/19 13:01:27;;;;;;;3.43;1.67;;;22.90;49.50;;;;;;5221882;28;20461;-48
2023/09/19 13:04:14;;;;;;;3.03;1.70;;;22.70;49.90;;;;;;5227259;28;20524;-48
2023/09/19 13:06:52;;;;;;;6.90;1.90;;;22.70;50.10;;;;;;5226141;28;20511;-53
2023/09/19 13:09:34;;;;;;;1.90;1.77;;;22.80;50.20;;;;;;5223942;28;20425;-48
2023/09/19 13:12:28;;;;;;;2.93;1.73;;;22.80;50.50;;;;;;5226130;28;20464;-47
2023/09/19 13:15:19;;;;;;;3.77;2.50;;;22.90;50.40;;;;;;5223095;28;20952;-47
2023/09/19 13:17:50;;;;;;;1.93;1.80;;;23.00;50.20;;;;;;5224594;28;20431;-47
2023/09/19 13:20:29;;;;;;;3.40;1.50;;;23.00;50.00;;;;;;5226251;28;20469;-47
2023/09/19 13:23:00;;;;;;;3.80;3.13;;;23.00;50.20;;;;;;5216376;28;20178;-47
2023/09/19 13:25:33;;;;;;;2.70;1.60;;;23.00;50.10;;;;;;5225920;28;20454;-47
2023/09/19 13:28:05;;;;;;;9.60;2.23;;;22.90;50.20;;;;;;5218421;28;20987;-46